Time;durP1;ratioP1;P1;durP2;ratioP2;P2;SDS_P1;SDS_P2;PMS_P1;PMS_P2;Temp;Humidity;BMP_temperature;BMP_pressure;BME280_temperature;BME280_humidity;BME280_pressure;Samples;Min_cycle;Max_cycle;Signal;HPM_P1;HPM_P2
2023/01/21 00:01:51;;;;;;;24.60;14.40;;;;;;;3.10;50.68;97758.38;5041909;28;20763;-71
2023/01/21 00:04:17;;;;;;;24.07;16.10;;;;;;;3.20;51.36;97768.13;5042433;28;20241;-69
2023/01/21 00:06:42;;;;;;;48.20;26.30;;;;;;;3.21;51.66;97772.38;5039406;28;20203;-70
2023/01/21 00:09:08;;;;;;;42.57;24.97;;;;;;;3.21;51.58;97762.00;5040679;28;20182;-70
2023/01/21 00:11:33;;;;;;;44.57;24.20;;;;;;;3.30;50.89;97770.16;5042585;28;20274;-70
2023/01/21 00:13:58;;;;;;;22.00;14.40;;;;;;;3.14;50.84;97781.44;5041303;28;20248;-70
2023/01/21 00:16:24;;;;;;;19.50;13.30;;;;;;;3.20;50.99;97775.88;5043864;28;20690;-69
2023/01/21 00:18:49;;;;;;;22.20;13.87;;;;;;;3.11;51.25;97775.59;5041980;28;20190;-70
2023/01/21 00:21:15;;;;;;;21.53;13.53;;;;;;;3.15;50.79;97771.91;5045273;28;20265;-70
2023/01/21 00:23:40;;;;;;;23.77;14.80;;;;;;;3.21;51.18;97777.56;5043119;28;20253;-72
2023/01/21 00:26:07;;;;;;;26.60;14.07;;;;;;;3.24;51.04;97773.94;5042862;28;20858;-69
2023/01/21 00:28:34;;;;;;;23.80;14.10;;;;;;;3.23;51.71;97778.31;5043102;28;20223;-70
2023/01/21 00:31:01;;;;;;;21.47;13.10;;;;;;;3.25;51.15;97777.38;5049194;28;20424;-70
2023/01/21 00:33:27;;;;;;;21.27;13.60;;;;;;;3.30;51.38;97781.38;5051138;28;20429;-71
2023/01/21 00:36:28;;;;;;;21.00;14.40;;;;;;;3.33;51.20;97775.16;5068832;28;20447;-71
2023/01/21 00:38:53;;;;;;;20.13;13.27;;;;;;;3.37;51.54;97781.81;5071315;28;20791;-70
2023/01/21 00:41:19;;;;;;;21.23;13.73;;;;;;;3.18;50.83;97779.50;5067602;28;20418;-68
2023/01/21 00:43:44;;;;;;;20.70;13.53;;;;;;;3.32;50.96;97786.44;5071468;28;20630;-70
2023/01/21 00:46:10;;;;;;;20.40;14.50;;;;;;;3.21;50.63;97785.34;5061052;28;20305;-70
2023/01/21 00:48:35;;;;;;;24.73;14.43;;;;;;;3.19;51.19;97787.19;5057442;28;20206;-72
2023/01/21 00:51:01;;;;;;;21.67;13.50;;;;;;;3.15;51.07;97795.22;5067378;28;20201;-70
2023/01/21 00:53:28;;;;;;;22.37;14.77;;;;;;;3.11;51.39;97788.56;5056120;28;20656;-70
2023/01/21 00:55:58;;;;;;;22.47;13.97;;;;;;;3.20;51.34;97788.84;5062819;28;20702;-69
2023/01/21 00:58:24;;;;;;;23.97;14.43;;;;;;;3.20;50.83;97791.44;5057980;28;20936;-70
2023/01/21 01:00:49;;;;;;;21.30;14.47;;;;;;;3.25;51.14;97792.94;5059474;28;20429;-68
2023/01/21 01:03:14;;;;;;;24.10;15.20;;;;;;;3.23;51.56;97795.59;5065095;28;20186;-69
2023/01/21 01:05:40;;;;;;;23.53;14.93;;;;;;;3.19;50.73;97799.31;5051167;28;20692;-69
2023/01/21 01:08:05;;;;;;;22.80;14.60;;;;;;;3.25;51.05;97798.94;5059728;28;20186;-70
2023/01/21 01:10:31;;;;;;;21.70;13.50;;;;;;;3.27;50.78;97804.84;5063763;28;20857;-71
2023/01/21 01:12:56;;;;;;;19.90;13.77;;;;;;;3.21;51.03;97802.66;5071163;28;20732;-69
2023/01/21 01:15:22;;;;;;;23.20;14.00;;;;;;;3.28;50.99;97813.44;5071046;28;20304;-67
2023/01/21 01:17:47;;;;;;;21.77;13.57;;;;;;;3.22;50.22;97802.53;5062065;28;20221;-71
2023/01/21 01:20:13;;;;;;;31.33;13.30;;;;;;;3.20;50.83;97804.38;5060517;28;20206;-68
2023/01/21 01:22:38;;;;;;;22.63;14.10;;;;;;;3.14;50.70;97802.19;5072414;28;20744;-71
2023/01/21 01:25:04;;;;;;;27.73;13.80;;;;;;;3.07;51.30;97800.84;5071738;28;20225;-70
2023/01/21 01:27:29;;;;;;;22.47;13.87;;;;;;;3.12;51.32;97814.38;5071082;28;20202;-71
2023/01/21 01:29:55;;;;;;;25.77;14.83;;;;;;;3.14;50.74;97812.53;5072108;28;20202;-70
2023/01/21 01:32:20;;;;;;;26.00;14.47;;;;;;;3.19;51.17;97810.50;5070270;28;20672;-71
2023/01/21 01:34:45;;;;;;;23.57;14.40;;;;;;;3.09;50.62;97814.56;5071006;28;20202;-70
2023/01/21 01:37:11;;;;;;;28.43;14.10;;;;;;;2.97;51.50;97810.09;5071373;28;20181;-71
2023/01/21 01:39:36;;;;;;;20.80;14.70;;;;;;;2.92;51.79;97808.59;5071520;28;20242;-71
2023/01/21 01:42:02;;;;;;;19.27;13.70;;;;;;;3.04;51.18;97816.56;5067686;28;20193;-70
2023/01/21 01:44:59;;;;;;;20.20;14.10;;;;;;;2.98;51.70;97817.75;5071324;28;20548;-69
2023/01/21 01:47:59;;;;;;;19.77;13.73;;;;;;;2.94;52.10;97821.47;5064465;28;20207;-70
2023/01/21 01:50:33;;;;;;;19.40;13.50;;;;;;;2.97;52.05;97816.09;5068341;28;20445;-70
2023/01/21 01:53:00;;;;;;;23.10;13.90;;;;;;;3.08;51.77;97818.06;5070728;28;20421;-70
2023/01/21 01:55:27;;;;;;;24.00;13.30;;;;;;;3.14;51.74;97817.72;5070907;28;20480;-70
2023/01/21 01:57:53;;;;;;;22.67;14.73;;;;;;;3.16;51.74;97830.56;5064530;28;20439;-73
2023/01/21 02:00:19;;;;;;;23.00;14.33;;;;;;;3.02;51.59;97819.25;5063238;28;20492;-72
2023/01/21 02:03:43;;;;;;;23.30;14.90;;;;;;;2.94;51.55;97831.84;5071499;28;20424;-73
2023/01/21 02:05:32;;;;;;;18.27;13.83;;;;;;;2.68;52.96;97838.50;5069643;28;20787;-73
2023/01/21 02:07:57;;;;;;;21.30;14.30;;;;;;;2.59;53.12;97837.25;5062432;28;21059;-73
2023/01/21 02:10:23;;;;;;;20.17;13.70;;;;;;;2.79;52.87;97843.88;5060955;28;20418;-73
2023/01/21 02:12:48;;;;;;;21.87;14.23;;;;;;;2.70;52.70;97840.09;5071552;28;20270;-70
2023/01/21 02:15:14;;;;;;;21.53;14.73;;;;;;;2.59;53.30;97848.47;5069948;28;20204;-71
2023/01/21 02:18:06;;;;;;;23.47;14.90;;;;;;;2.60;53.06;97850.13;5062879;28;20558;-70
2023/01/21 02:20:40;;;;;;;20.40;13.70;;;;;;;2.60;53.26;97852.72;5069858;28;20251;-68
2023/01/21 02:23:18;;;;;;;23.87;14.73;;;;;;;2.51;52.96;97855.81;5065207;28;20457;-71
2023/01/21 02:26:02;;;;;;;21.47;14.23;;;;;;;2.44;52.89;97859.66;5063893;28;20466;-70
2023/01/21 02:28:58;;;;;;;20.60;13.63;;;;;;;2.28;53.53;97862.25;5061299;28;20956;-69
2023/01/21 02:31:42;;;;;;;22.87;15.07;;;;;;;2.35;52.62;97865.34;5070786;28;20480;-71
2023/01/21 02:34:12;;;;;;;20.33;13.27;;;;;;;2.25;52.99;97867.59;5069979;28;20482;-71
2023/01/21 02:36:56;;;;;;;28.87;15.47;;;;;;;2.17;53.11;97868.00;5068692;28;20456;-70
2023/01/21 02:39:48;;;;;;;19.30;14.40;;;;;;;2.20;53.64;97867.03;5069114;28;20433;-70
2023/01/21 02:42:27;;;;;;;23.13;14.10;;;;;;;2.32;52.30;97865.50;5068001;28;20986;-71
2023/01/21 02:44:59;;;;;;;26.10;14.07;;;;;;;2.17;52.76;97882.72;5069313;28;20440;-69
2023/01/21 02:47:40;;;;;;;27.73;15.23;;;;;;;1.94;53.36;97882.19;5061511;28;20512;-70
2023/01/21 02:50:08;;;;;;;21.07;14.00;;;;;;;2.09;53.02;97876.19;5069145;28;20427;-70
2023/01/21 02:52:33;;;;;;;28.60;14.57;;;;;;;2.24;52.80;97879.72;5060882;28;20459;-70
2023/01/21 02:55:00;;;;;;;21.80;14.57;;;;;;;2.29;51.70;97879.47;5059797;28;20530;-70
2023/01/21 02:57:48;;;;;;;23.27;14.20;;;;;;;2.33;51.66;97872.34;5052763;28;20286;-69
2023/01/21 03:00:24;;;;;;;23.80;14.23;;;;;;;2.28;51.56;97867.44;5052034;28;20528;-69
2023/01/21 03:03:19;;;;;;;23.47;14.90;;;;;;;1.96;52.39;97867.41;5065688;28;20505;-69
2023/01/21 03:06:15;;;;;;;20.57;13.93;;;;;;;1.93;52.68;97871.00;5068109;28;20828;-72
2023/01/21 03:08:45;;;;;;;23.90;14.60;;;;;;;1.80;52.87;97875.16;5071695;28;20424;-69
2023/01/21 03:11:16;;;;;;;24.73;14.70;;;;;;;1.90;52.93;97878.91;5062434;28;20568;-70
2023/01/21 03:16:56;;;;;;;27.53;14.33;;;;;;;1.92;52.58;97874.50;5051151;28;20460;-70
2023/01/21 03:19:31;;;;;;;25.17;14.90;;;;;;;1.86;52.73;97879.16;5063628;28;20495;-70
2023/01/21 03:21:58;;;;;;;28.03;14.57;;;;;;;1.78;52.80;97879.56;5057065;28;20424;-71
2023/01/21 03:24:24;;;;;;;19.90;14.17;;;;;;;1.84;52.50;97881.84;5068318;28;20770;-71
2023/01/21 03:26:51;;;;;;;21.03;13.70;;;;;;;1.77;52.53;97880.47;5043640;28;20464;-72
2023/01/21 03:29:22;;;;;;;20.40;13.57;;;;;;;1.73;52.72;97889.34;5068035;28;20270;-71
2023/01/21 03:31:51;;;;;;;21.90;13.50;;;;;;;1.68;52.67;97887.81;5060712;28;20468;-71
2023/01/21 03:34:18;;;;;;;25.00;15.10;;;;;;;1.79;52.89;97894.16;5068078;28;20939;-70
2023/01/21 03:36:56;;;;;;;20.00;13.77;;;;;;;1.81;52.61;97897.50;5069067;28;20421;-71
2023/01/21 03:39:44;;;;;;;22.23;14.90;;;;;;;1.86;52.36;97900.69;5068236;28;20428;-70
2023/01/21 03:42:10;;;;;;;22.77;14.23;;;;;;;1.91;52.25;97903.84;5064426;28;20429;-70
2023/01/21 03:44:36;;;;;;;20.37;13.17;;;;;;;1.95;52.11;97905.38;5069604;28;21003;-70
2023/01/21 03:47:22;;;;;;;21.63;13.63;;;;;;;1.68;52.49;97899.91;5058897;28;20568;-70
2023/01/21 03:50:07;;;;;;;23.33;14.50;;;;;;;1.69;52.81;97894.66;5057111;28;20421;-70
2023/01/21 03:52:33;;;;;;;20.53;14.07;;;;;;;1.74;52.51;97898.75;5061437;28;20833;-70
2023/01/21 03:54:59;;;;;;;24.27;15.50;;;;;;;1.68;52.53;97895.56;5068678;28;20444;-71
2023/01/21 03:57:24;;;;;;;24.53;13.57;;;;;;;1.65;52.24;97900.88;5065215;28;20183;-71
2023/01/21 03:59:49;;;;;;;18.27;12.80;;;;;;;1.46;52.69;97905.34;5066544;28;20274;-71
2023/01/21 04:02:19;;;;;;;20.73;14.23;;;;;;;1.47;52.55;97901.84;5059557;28;20182;-68
2023/01/21 04:04:45;;;;;;;18.53;13.37;;;;;;;1.41;52.45;97907.31;5070529;28;20205;-70
2023/01/21 04:07:12;;;;;;;21.27;13.53;;;;;;;1.55;51.76;97904.03;5068594;28;20539;-70
2023/01/21 04:09:37;;;;;;;20.73;13.30;;;;;;;1.53;51.97;97898.94;5069770;28;20984;-70
2023/01/21 04:12:03;;;;;;;19.53;13.40;;;;;;;1.61;51.88;97904.56;5061947;28;20433;-70
2023/01/21 04:14:28;;;;;;;18.80;13.00;;;;;;;1.58;51.62;97907.28;5069187;28;20184;-71
2023/01/21 04:16:54;;;;;;;24.47;14.67;;;;;;;1.44;52.35;97904.56;5062770;28;20186;-71
2023/01/21 04:19:20;;;;;;;20.03;13.63;;;;;;;1.49;52.57;97912.94;5067233;28;20197;-71
2023/01/21 04:21:45;;;;;;;22.77;14.00;;;;;;;1.55;51.74;97906.63;5063187;28;20189;-71
2023/01/21 04:24:11;;;;;;;24.30;13.87;;;;;;;1.43;52.13;97906.34;5069847;28;20178;-70
2023/01/21 04:26:36;;;;;;;21.73;13.67;;;;;;;1.43;52.12;97906.34;5069254;28;20251;-71
2023/01/21 04:29:02;;;;;;;25.23;13.90;;;;;;;1.51;51.79;97911.13;5068914;28;20182;-70
2023/01/21 04:31:27;;;;;;;21.60;12.77;;;;;;;1.47;52.21;97907.00;5061852;28;20197;-70
2023/01/21 04:33:53;;;;;;;18.60;12.80;;;;;;;1.51;52.08;97911.13;5069012;28;20181;-69
2023/01/21 04:36:18;;;;;;;20.97;13.03;;;;;;;1.50;52.11;97914.63;5068740;28;20751;-69
2023/01/21 04:38:44;;;;;;;23.50;13.70;;;;;;;1.41;52.25;97910.75;5069224;28;20179;-70
2023/01/21 04:41:09;;;;;;;19.83;11.93;;;;;;;1.42;52.10;97911.56;5064807;28;20692;-71
2023/01/21 04:43:35;;;;;;;18.53;12.20;;;;;;;1.29;52.41;97913.94;5069964;28;20183;-70
2023/01/21 04:46:01;;;;;;;18.70;12.33;;;;;;;1.32;52.01;97909.44;5048828;28;20237;-70
2023/01/21 04:48:26;;;;;;;17.33;12.67;;;;;;;1.21;52.03;97914.31;5067730;28;20265;-70
2023/01/21 04:50:51;;;;;;;16.40;11.60;;;;;;;1.17;52.07;97920.53;5064684;28;20871;-73
2023/01/21 04:53:17;;;;;;;19.20;12.47;;;;;;;1.22;52.38;97919.41;5066869;28;20178;-69
2023/01/21 04:55:42;;;;;;;18.17;12.77;;;;;;;1.27;52.21;97918.34;5067788;28;20198;-70
2023/01/21 04:58:08;;;;;;;19.60;13.70;;;;;;;1.28;52.44;97920.84;5054743;28;20274;-71
2023/01/21 05:00:33;;;;;;;22.07;13.20;;;;;;;1.26;52.14;97920.06;5045588;28;20262;-70
2023/01/21 05:02:59;;;;;;;20.30;13.00;;;;;;;1.27;51.89;97916.59;5049459;28;20226;-72
2023/01/21 05:05:24;;;;;;;16.30;12.00;;;;;;;1.07;52.34;97918.41;5046167;28;20235;-71
2023/01/21 05:07:53;;;;;;;18.10;13.00;;;;;;;1.09;52.54;97920.09;5057173;28;20234;-68
2023/01/21 05:10:18;;;;;;;21.63;14.10;;;;;;;1.23;52.52;97909.91;5050394;28;20658;-68
2023/01/21 05:12:44;;;;;;;20.63;12.30;;;;;;;1.20;52.05;97912.66;5056906;28;20429;-71
2023/01/21 05:15:10;;;;;;;18.70;11.83;;;;;;;1.22;51.66;97908.25;5060852;28;20203;-70
2023/01/21 05:17:35;;;;;;;18.43;11.67;;;;;;;1.22;51.71;97921.16;5049436;28;20258;-72
2023/01/21 05:20:01;;;;;;;19.93;13.40;;;;;;;1.15;52.27;97930.97;5055309;28;20500;-71
2023/01/21 05:22:26;;;;;;;20.87;13.30;;;;;;;0.90;52.11;97936.47;5050073;28;20875;-69
2023/01/21 05:24:52;;;;;;;21.10;12.70;;;;;;;0.98;51.91;97931.78;5062361;28;20814;-69
2023/01/21 05:27:18;;;;;;;19.40;11.83;;;;;;;1.01;51.95;97934.19;5062837;28;20301;-69
2023/01/21 05:29:44;;;;;;;20.07;12.53;;;;;;;1.03;52.07;97939.31;5058204;28;20183;-70
2023/01/21 05:32:09;;;;;;;24.77;14.10;;;;;;;1.04;52.62;97944.38;5062627;28;20801;-69
2023/01/21 05:34:35;;;;;;;18.83;12.23;;;;;;;0.86;51.94;97940.94;5059103;28;20654;-69
2023/01/21 05:37:00;;;;;;;19.77;12.63;;;;;;;0.87;52.57;97949.53;5055181;28;20217;-69
2023/01/21 05:39:26;;;;;;;23.13;13.50;;;;;;;0.91;52.76;97944.16;5058924;28;20197;-69
2023/01/21 05:41:51;;;;;;;20.00;11.90;;;;;;;0.90;52.06;97939.91;5055743;28;20549;-70
2023/01/21 05:44:17;;;;;;;19.73;12.60;;;;;;;0.89;52.70;97953.72;5061358;28;20198;-70
2023/01/21 05:46:42;;;;;;;21.60;13.00;;;;;;;0.85;52.57;97948.78;5058845;28;20301;-68
2023/01/21 05:49:07;;;;;;;20.60;13.50;;;;;;;0.87;52.63;97941.78;5059861;28;20550;-68
2023/01/21 05:51:33;;;;;;;18.47;13.30;;;;;;;0.79;52.43;97949.03;5063422;28;20265;-69
2023/01/21 05:53:58;;;;;;;20.90;12.90;;;;;;;0.79;52.58;97954.22;5063125;28;20212;-71
2023/01/21 05:56:24;;;;;;;20.80;13.40;;;;;;;0.86;52.42;97955.59;5057089;28;20341;-72
2023/01/21 05:58:49;;;;;;;19.90;12.20;;;;;;;0.90;51.95;97952.81;5059317;28;20362;-70
2023/01/21 06:01:15;;;;;;;18.40;13.60;;;;;;;0.95;52.02;97957.75;5052288;28;20203;-68
2023/01/21 06:03:40;;;;;;;38.00;20.80;;;;;;;0.98;52.10;97960.19;5051478;28;20186;-70
2023/01/21 06:06:06;;;;;;;43.03;23.37;;;;;;;0.99;51.92;97961.84;5066968;28;20206;-70
2023/01/21 06:08:31;;;;;;;34.00;19.73;;;;;;;0.86;51.59;97963.34;5059154;28;20183;-70
2023/01/21 06:10:57;;;;;;;48.23;28.63;;;;;;;0.58;52.35;97970.63;5054043;28;20187;-71
2023/01/21 06:13:23;;;;;;;82.30;44.97;;;;;;;0.57;52.82;97975.88;5058328;28;20552;-71
2023/01/21 06:15:49;;;;;;;35.63;22.20;;;;;;;0.64;52.52;97982.41;5064227;28;20194;-71
2023/01/21 06:18:14;;;;;;;29.20;18.43;;;;;;;0.75;52.55;97980.19;5061950;28;20452;-70
2023/01/21 06:20:40;;;;;;;25.73;15.30;;;;;;;0.86;52.50;97981.41;5061829;28;20449;-70
2023/01/21 06:23:05;;;;;;;25.53;14.33;;;;;;;0.75;52.46;97980.19;5059902;28;20214;-72
2023/01/21 06:25:31;;;;;;;27.60;17.97;;;;;;;0.57;52.97;97981.84;5055585;28;20691;-70
2023/01/21 06:27:57;;;;;;;23.73;15.33;;;;;;;0.77;52.74;97988.66;5059104;28;20266;-70
2023/01/21 06:30:24;;;;;;;23.97;14.20;;;;;;;0.72;52.38;97985.47;5059140;28;20447;-71
2023/01/21 06:32:49;;;;;;;22.77;14.63;;;;;;;0.72;52.95;97987.22;5057385;28;20625;-71
2023/01/21 06:35:15;;;;;;;22.40;14.20;;;;;;;0.74;53.08;97995.72;5060360;28;20536;-70
2023/01/21 06:37:40;;;;;;;21.77;13.83;;;;;;;0.82;53.00;97995.38;5062450;28;20689;-70
2023/01/21 06:40:09;;;;;;;30.83;14.17;;;;;;;0.92;53.40;98001.75;5064229;28;20648;-71
2023/01/21 06:42:35;;;;;;;21.30;14.60;;;;;;;0.89;53.18;98000.16;5056389;28;20247;-71
2023/01/21 06:45:00;;;;;;;25.83;15.30;;;;;;;1.02;53.95;98008.16;5059937;28;20552;-70
2023/01/21 06:47:25;;;;;;;26.17;16.40;;;;;;;1.20;54.53;98010.78;5062061;28;20293;-70
2023/01/21 06:49:51;;;;;;;25.03;16.60;;;;;;;1.29;54.72;98025.00;5062703;28;20179;-69
2023/01/21 06:52:16;;;;;;;26.70;16.97;;;;;;;1.36;55.17;98011.72;5053207;28;20194;-70
2023/01/21 06:54:42;;;;;;;26.53;17.33;;;;;;;1.37;55.82;98020.28;5063124;28;20289;-69
2023/01/21 06:57:08;;;;;;;37.67;24.90;;;;;;;1.31;54.97;98026.59;5060932;28;20207;-70
2023/01/21 06:59:34;;;;;;;29.50;17.53;;;;;;;1.43;56.31;98022.59;5044869;28;20264;-70
2023/01/21 07:02:00;;;;;;;31.63;19.50;;;;;;;1.46;56.67;98019.84;5051356;28;20422;-70
2023/01/21 07:04:26;;;;;;;30.90;19.40;;;;;;;1.52;56.84;98032.47;5050088;28;20198;-70
2023/01/21 07:06:51;;;;;;;31.33;18.43;;;;;;;1.53;56.87;98031.56;5050485;28;20199;-70
2023/01/21 07:09:17;;;;;;;32.77;19.90;;;;;;;1.62;57.00;98030.28;5047844;28;21003;-69
2023/01/21 07:11:42;;;;;;;35.80;21.10;;;;;;;1.67;56.42;98042.97;5045325;28;20282;-72
2023/01/21 07:14:08;;;;;;;35.33;19.63;;;;;;;1.69;56.17;98047.16;5049014;28;20803;-69
2023/01/21 07:16:34;;;;;;;33.37;19.90;;;;;;;1.76;56.46;98044.28;5050474;28;20203;-70
2023/01/21 07:18:59;;;;;;;35.50;20.67;;;;;;;1.76;56.14;98046.84;5047329;28;20475;-71
2023/01/21 07:21:25;;;;;;;34.40;20.27;;;;;;;1.75;56.25;98055.53;5049778;28;20218;-73
2023/01/21 07:23:51;;;;;;;31.50;19.90;;;;;;;1.78;56.33;98063.09;5050000;28;20191;-68
2023/01/21 07:26:17;;;;;;;34.57;20.37;;;;;;;1.78;56.37;98057.94;5049172;28;20882;-70
2023/01/21 07:28:43;;;;;;;34.03;20.90;;;;;;;1.79;56.55;98065.63;5047890;28;20430;-69
2023/01/21 07:31:08;;;;;;;36.80;20.67;;;;;;;1.74;56.03;98077.09;5049228;28;20519;-70
2023/01/21 07:33:34;;;;;;;39.90;22.37;;;;;;;1.78;56.42;98078.59;5049741;28;20179;-72
2023/01/21 07:35:59;;;;;;;34.23;20.30;;;;;;;1.79;55.99;98088.88;5049879;28;20191;-71
2023/01/21 07:38:24;;;;;;;40.43;22.33;;;;;;;1.83;56.05;98086.97;5048830;28;20733;-70
2023/01/21 07:40:50;;;;;;;35.90;20.70;;;;;;;1.83;55.89;98089.56;5049798;28;20750;-73
2023/01/21 07:43:16;;;;;;;36.00;21.50;;;;;;;1.79;55.80;98094.06;5049385;28;20178;-70
2023/01/21 07:45:41;;;;;;;38.67;22.87;;;;;;;1.76;56.18;98090.78;5048303;28;20203;-69
2023/01/21 07:48:07;;;;;;;34.10;21.10;;;;;;;1.69;56.03;98092.84;5040913;28;20427;-72
2023/01/21 07:50:33;;;;;;;37.00;21.70;;;;;;;1.67;56.17;98089.50;5045409;28;20202;-72
2023/01/21 07:52:59;;;;;;;37.63;22.43;;;;;;;1.74;56.43;98097.78;5049650;28;20827;-72
2023/01/21 07:55:25;;;;;;;36.50;21.67;;;;;;;1.72;56.03;98099.59;5049213;28;20480;-71
2023/01/21 07:57:50;;;;;;;38.90;22.40;;;;;;;1.73;56.07;98107.28;5049464;28;20185;-71
2023/01/21 08:00:16;;;;;;;37.63;22.83;;;;;;;1.69;55.94;98103.19;5049380;28;20418;-70
2023/01/21 08:02:42;;;;;;;38.97;22.00;;;;;;;1.67;56.23;98105.81;5048836;28;20191;-71
2023/01/21 08:05:08;;;;;;;40.30;21.43;;;;;;;1.67;56.22;98099.84;5048917;28;20442;-71
2023/01/21 08:07:34;;;;;;;37.37;21.40;;;;;;;1.73;55.95;98116.78;5056804;28;20622;-71
2023/01/21 08:09:59;;;;;;;38.00;22.27;;;;;;;1.77;55.86;98110.53;5048103;28;20516;-70
2023/01/21 08:12:25;;;;;;;39.60;22.40;;;;;;;1.78;56.18;98107.91;5049837;28;20325;-71
2023/01/21 08:14:50;;;;;;;41.23;22.83;;;;;;;1.72;55.94;98110.75;5049682;28;20199;-71
2023/01/21 08:17:16;;;;;;;36.27;21.40;;;;;;;1.75;55.97;98104.63;5049573;28;20186;-70
2023/01/21 08:19:41;;;;;;;40.37;21.23;;;;;;;1.77;56.15;98107.94;5049300;28;20657;-71
2023/01/21 08:22:06;;;;;;;38.87;21.77;;;;;;;1.90;55.84;98108.19;5048960;28;20260;-72
2023/01/21 08:24:32;;;;;;;38.30;21.70;;;;;;;1.95;55.89;98107.06;5048660;28;20254;-71
2023/01/21 08:26:59;;;;;;;37.60;21.20;;;;;;;1.95;55.67;98104.47;5067761;28;20203;-74
2023/01/21 08:29:25;;;;;;;42.50;22.30;;;;;;;1.97;55.75;98110.41;5067398;28;20246;-71
2023/01/21 08:31:51;;;;;;;40.40;21.40;;;;;;;2.06;55.44;98118.63;5075048;28;20441;-71
2023/01/21 08:34:17;;;;;;;33.20;21.07;;;;;;;2.06;55.48;98116.03;5072188;28;20433;-71
2023/01/21 08:36:42;;;;;;;55.13;21.87;;;;;;;2.08;55.44;98114.22;5069337;28;20441;-70
2023/01/21 08:39:08;;;;;;;39.30;22.10;;;;;;;2.10;55.18;98120.97;5068217;28;20433;-71
2023/01/21 08:41:33;;;;;;;34.50;19.93;;;;;;;2.05;55.39;98117.78;5076611;28;20179;-70
2023/01/21 08:43:59;;;;;;;40.07;22.47;;;;;;;2.08;55.53;98117.63;5075862;28;20266;-72
2023/01/21 08:46:25;;;;;;;33.93;20.60;;;;;;;2.10;55.44;98120.16;5086666;28;20217;-72
2023/01/21 08:48:50;;;;;;;36.93;21.30;;;;;;;2.05;55.58;98116.94;5070772;28;20213;-71
2023/01/21 08:51:16;;;;;;;35.47;20.60;;;;;;;2.10;55.50;98114.97;5076807;28;20175;-68
2023/01/21 08:53:41;;;;;;;35.97;20.53;;;;;;;2.10;55.59;98114.97;5052148;28;20690;-70
2023/01/21 08:56:07;;;;;;;41.53;21.23;;;;;;;2.15;55.28;98118.16;5066319;28;20201;-75
2023/01/21 08:58:32;;;;;;;44.73;21.83;;;;;;;2.20;55.42;98120.53;5043542;28;20170;-75
2023/01/21 09:00:58;;;;;;;33.70;19.53;;;;;;;2.22;55.16;98121.25;5056922;28;20255;-71
2023/01/21 09:03:24;;;;;;;40.17;21.07;;;;;;;2.35;54.71;98113.72;5052559;28;20183;-70
2023/01/21 09:05:50;;;;;;;38.73;20.50;;;;;;;2.40;54.63;98106.56;5052517;28;20210;-71
2023/01/21 09:08:17;;;;;;;40.77;20.60;;;;;;;2.32;54.62;98108.72;5047853;28;20190;-71
2023/01/21 09:11:00;;;;;;;46.60;21.20;;;;;;;2.45;55.05;98109.75;5053143;28;20414;-70
2023/01/21 09:13:27;;;;;;;38.90;20.20;;;;;;;2.60;55.00;98102.94;5060827;28;20421;-74
2023/01/21 09:15:53;;;;;;;38.27;19.27;;;;;;;2.67;54.93;98108.63;5050398;28;20467;-72
2023/01/21 09:18:18;;;;;;;34.07;19.53;;;;;;;2.70;54.67;98113.66;5050410;28;20981;-74
2023/01/21 09:20:43;;;;;;;36.20;20.20;;;;;;;2.68;54.58;98110.31;5051489;28;20178;-72
2023/01/21 09:23:24;;;;;;;40.30;20.33;;;;;;;2.73;54.34;98113.50;5050959;28;20693;-72
2023/01/21 09:25:55;;;;;;;36.77;18.90;;;;;;;2.70;54.55;98114.50;5056531;28;20687;-75
2023/01/21 09:28:21;;;;;;;34.17;16.93;;;;;;;2.78;54.27;98116.66;5050439;28;20471;-72
2023/01/21 09:30:47;;;;;;;40.20;20.37;;;;;;;2.86;54.53;98118.84;5049935;28;20456;-72
2023/01/21 09:33:13;;;;;;;36.77;18.90;;;;;;;2.94;54.22;98123.63;5051343;28;20449;-71
2023/01/21 09:35:39;;;;;;;35.93;18.00;;;;;;;2.88;52.81;98117.88;5059266;28;20199;-73
2023/01/21 09:38:04;;;;;;;42.23;18.30;;;;;;;2.88;53.88;98128.22;5051660;28;20756;-71
2023/01/21 09:40:30;;;;;;;31.73;18.23;;;;;;;2.89;53.99;98126.47;5050749;28;20183;-73
2023/01/21 09:42:56;;;;;;;33.10;18.03;;;;;;;3.00;53.93;98128.50;5052777;28;20544;-71
2023/01/21 09:45:22;;;;;;;33.63;17.40;;;;;;;3.00;53.90;98131.91;5058439;28;20206;-70
2023/01/21 09:47:49;;;;;;;30.83;17.60;;;;;;;2.87;54.19;98131.72;5051206;28;20449;-74
2023/01/21 09:50:22;;;;;;;27.07;16.40;;;;;;;2.87;54.33;98136.91;5059174;28;20182;-71
2023/01/21 09:52:50;;;;;;;30.80;16.70;;;;;;;2.95;53.57;98133.06;5054689;28;20417;-70
2023/01/21 09:55:21;;;;;;;28.37;17.73;;;;;;;2.91;54.02;98135.00;5051482;28;20438;-71
2023/01/21 09:58:08;;;;;;;27.73;16.07;;;;;;;2.88;54.04;98128.22;5051566;28;20503;-70
2023/01/21 10:00:46;;;;;;;27.13;14.60;;;;;;;3.01;54.15;98132.75;5043744;28;20417;-71
2023/01/21 10:03:33;;;;;;;29.07;16.50;;;;;;;3.13;54.11;98137.28;5051857;28;20501;-71
2023/01/21 10:06:15;;;;;;;28.73;16.13;;;;;;;3.06;54.04;98131.59;5049831;28;20476;-71
2023/01/21 10:08:50;;;;;;;25.60;14.10;;;;;;;3.10;54.06;98132.25;5042562;28;20426;-70
2023/01/21 10:11:34;;;;;;;23.07;14.30;;;;;;;3.18;53.83;98134.44;5049726;28;20425;-71
2023/01/21 10:14:14;;;;;;;24.27;14.03;;;;;;;3.15;53.82;98143.19;5055661;28;20425;-71
2023/01/21 10:16:43;;;;;;;28.73;16.07;;;;;;;3.19;53.70;98131.75;5044942;28;20623;-73
2023/01/21 10:19:27;;;;;;;26.93;16.30;;;;;;;3.11;53.53;98136.53;5054862;28;20440;-69
2023/01/21 10:22:08;;;;;;;28.37;15.90;;;;;;;3.12;53.45;98132.16;5033914;28;20795;-70
2023/01/21 10:24:38;;;;;;;30.67;17.33;;;;;;;3.04;53.69;98132.56;5041966;28;20513;-70
2023/01/21 10:27:04;;;;;;;35.50;18.57;;;;;;;2.97;54.22;98141.59;5049590;28;20548;-71
2023/01/21 10:29:30;;;;;;;29.17;17.17;;;;;;;2.89;54.57;98137.69;5066756;28;20518;-71
2023/01/21 10:32:06;;;;;;;32.10;18.60;;;;;;;2.97;54.58;98134.66;5049758;28;20436;-72
2023/01/21 10:34:36;;;;;;;30.57;17.90;;;;;;;2.96;54.79;98135.56;5050255;28;20183;-71
2023/01/21 10:37:13;;;;;;;34.70;17.87;;;;;;;3.06;54.56;98144.53;5059009;28;20501;-71
2023/01/21 10:40:01;;;;;;;34.30;18.97;;;;;;;3.10;54.71;98137.44;5056232;28;20418;-70
2023/01/21 10:42:36;;;;;;;32.00;17.40;;;;;;;3.14;54.46;98138.94;5056973;28;20430;-71
2023/01/21 10:45:16;;;;;;;27.90;17.27;;;;;;;3.18;54.37;98137.03;5062933;28;20865;-73
2023/01/21 10:47:47;;;;;;;25.07;15.17;;;;;;;3.15;53.95;98140.59;5045614;28;20538;-71
2023/01/21 10:50:38;;;;;;;26.17;15.73;;;;;;;3.21;54.36;98135.09;5050197;28;20919;-71
2023/01/21 10:53:29;;;;;;;26.10;16.00;;;;;;;3.21;54.34;98140.28;5052342;28;20917;-72
2023/01/21 10:56:17;;;;;;;30.70;16.07;;;;;;;3.16;54.14;98134.50;5044211;28;21025;-70
2023/01/21 10:58:51;;;;;;;28.53;16.00;;;;;;;3.19;54.75;98133.53;5043055;28;20443;-71
2023/01/21 11:01:23;;;;;;;25.10;15.53;;;;;;;3.18;54.66;98130.06;5048952;28;20501;-71
2023/01/21 11:03:51;;;;;;;28.20;16.33;;;;;;;3.18;54.95;98126.66;5048857;28;20418;-70
2023/01/21 11:06:18;;;;;;;32.40;17.00;;;;;;;3.19;54.61;98129.16;5049105;28;20461;-71
2023/01/21 11:09:01;;;;;;;28.67;16.70;;;;;;;3.19;54.29;98129.16;5045314;28;20936;-70
2023/01/21 11:11:29;;;;;;;29.57;16.07;;;;;;;3.27;55.00;98127.94;5046276;28;20424;-72
2023/01/21 11:13:55;;;;;;;26.33;16.37;;;;;;;3.31;54.77;98126.81;5054871;28;20424;-71
2023/01/21 11:16:36;;;;;;;30.97;18.00;;;;;;;3.32;54.45;98116.38;5049881;28;20468;-70
2023/01/21 11:19:03;;;;;;;28.93;17.60;;;;;;;3.27;54.99;98115.78;5044833;28;20206;-71
2023/01/21 11:21:28;;;;;;;32.30;17.20;;;;;;;3.34;54.70;98124.06;5047413;28;20425;-70
2023/01/21 11:23:56;;;;;;;32.13;17.50;;;;;;;3.31;54.71;98113.84;5049648;28;20437;-73
2023/01/21 11:26:30;;;;;;;30.97;18.03;;;;;;;3.27;54.31;98117.56;5049157;28;20578;-71
2023/01/21 11:29:08;;;;;;;32.23;18.43;;;;;;;3.21;54.92;98111.78;5050235;28;20571;-69
2023/01/21 11:31:34;;;;;;;33.00;17.97;;;;;;;3.19;55.16;98116.19;5041733;28;20456;-72
2023/01/21 11:34:11;;;;;;;35.37;18.53;;;;;;;3.23;55.42;98106.50;5049576;28;20948;-70
2023/01/21 11:36:51;;;;;;;30.43;18.20;;;;;;;3.34;54.82;98111.09;5040881;28;20441;-70